sensor_id;sensor_type;location;lat;lon;timestamp;pressure;altitude;pressure_sealevel;temperature;humidity
40372;BME280;28564;53.346;-6.554;2022-10-31T00:00:41;99831.50;;;15.61;54.38
40372;BME280;28564;53.346;-6.554;2022-10-31T00:03:08;99840.98;;;15.87;54.32
40372;BME280;28564;53.346;-6.554;2022-10-31T00:05:35;99839.73;;;15.63;54.43
40372;BME280;28564;53.346;-6.554;2022-10-31T00:08:02;99837.44;;;15.85;54.42
40372;BME280;28564;53.346;-6.554;2022-10-31T00:10:30;99833.22;;;15.58;54.61
40372;BME280;28564;53.346;-6.554;2022-10-31T00:12:56;99835.39;;;15.58;54.84
40372;BME280;28564;53.346;-6.554;2022-10-31T00:15:24;99831.67;;;15.63;54.87
40372;BME280;28564;53.346;-6.554;2022-10-31T00:17:51;99831.14;;;15.89;54.75
40372;BME280;28564;53.346;-6.554;2022-10-31T00:20:18;99836.04;;;15.75;54.69
40372;BME280;28564;53.346;-6.554;2022-10-31T00:22:45;99834.53;;;16.29;54.62
40372;BME280;28564;53.346;-6.554;2022-10-31T00:25:12;99833.35;;;16.34;54.46
40372;BME280;28564;53.346;-6.554;2022-10-31T00:27:39;99836.76;;;15.86;54.23
40372;BME280;28564;53.346;-6.554;2022-10-31T00:30:07;99826.12;;;15.83;54.21
40372;BME280;28564;53.346;-6.554;2022-10-31T00:32:34;99829.48;;;15.99;54.27
40372;BME280;28564;53.346;-6.554;2022-10-31T00:35:01;99828.70;;;16.16;54.41
40372;BME280;28564;53.346;-6.554;2022-10-31T00:37:28;99824.10;;;15.83;54.64
40372;BME280;28564;53.346;-6.554;2022-10-31T00:39:55;99822.45;;;16.04;54.84
40372;BME280;28564;53.346;-6.554;2022-10-31T00:42:23;99820.02;;;15.51;54.94
40372;BME280;28564;53.346;-6.554;2022-10-31T00:44:50;99815.43;;;15.68;55.06
40372;BME280;28564;53.346;-6.554;2022-10-31T00:47:18;99811.03;;;15.65;55.14
40372;BME280;28564;53.346;-6.554;2022-10-31T00:49:45;99805.05;;;15.92;55.10
40372;BME280;28564;53.346;-6.554;2022-10-31T00:52:12;99802.31;;;15.62;55.04
40372;BME280;28564;53.346;-6.554;2022-10-31T00:54:39;99800.29;;;15.36;55.06
40372;BME280;28564;53.346;-6.554;2022-10-31T00:57:06;99797.21;;;15.37;54.99
40372;BME280;28564;53.346;-6.554;2022-10-31T00:59:33;99797.67;;;15.57;54.95
40372;BME280;28564;53.346;-6.554;2022-10-31T01:02:01;99798.92;;;15.61;54.85
40372;BME280;28564;53.346;-6.554;2022-10-31T01:04:28;99800.25;;;15.84;54.85
40372;BME280;28564;53.346;-6.554;2022-10-31T01:06:55;99798.38;;;15.57;54.82
40372;BME280;28564;53.346;-6.554;2022-10-31T01:09:22;99793.62;;;15.84;54.81
40372;BME280;28564;53.346;-6.554;2022-10-31T01:11:50;99801.38;;;15.58;54.73
40372;BME280;28564;53.346;-6.554;2022-10-31T01:14:17;99797.95;;;15.58;54.74
40372;BME280;28564;53.346;-6.554;2022-10-31T01:16:45;99803.16;;;15.59;54.64
40372;BME280;28564;53.346;-6.554;2022-10-31T01:19:12;99797.67;;;15.61;54.52
40372;BME280;28564;53.346;-6.554;2022-10-31T01:21:39;99795.29;;;15.60;54.59
40372;BME280;28564;53.346;-6.554;2022-10-31T01:24:07;99794.58;;;15.58;54.67
40372;BME280;28564;53.346;-6.554;2022-10-31T01:26:35;99795.04;;;15.57;54.73
40372;BME280;28564;53.346;-6.554;2022-10-31T01:29:05;99801.27;;;15.56;54.74
40372;BME280;28564;53.346;-6.554;2022-10-31T01:31:35;99802.10;;;15.53;55.00
40372;BME280;28564;53.346;-6.554;2022-10-31T01:34:03;99800.03;;;15.77;55.13
40372;BME280;28564;53.346;-6.554;2022-10-31T01:36:32;99795.55;;;15.50;55.32
40372;BME280;28564;53.346;-6.554;2022-10-31T01:39:03;99785.95;;;15.78;55.54
40372;BME280;28564;53.346;-6.554;2022-10-31T01:41:33;99784.08;;;15.55;55.62
40372;BME280;28564;53.346;-6.554;2022-10-31T01:44:02;99774.17;;;15.86;55.48
40372;BME280;28564;53.346;-6.554;2022-10-31T01:46:33;99776.19;;;15.57;55.50
40372;BME280;28564;53.346;-6.554;2022-10-31T01:49:05;99773.82;;;15.57;55.37
40372;BME280;28564;53.346;-6.554;2022-10-31T01:51:38;99768.00;;;15.55;55.43
40372;BME280;28564;53.346;-6.554;2022-10-31T01:54:09;99763.14;;;15.58;55.43
40372;BME280;28564;53.346;-6.554;2022-10-31T01:56:42;99752.46;;;15.60;55.24
40372;BME280;28564;53.346;-6.554;2022-10-31T01:59:11;99756.52;;;15.38;55.10
40372;BME280;28564;53.346;-6.554;2022-10-31T02:01:41;99750.58;;;15.86;55.12
40372;BME280;28564;53.346;-6.554;2022-10-31T02:04:08;99755.86;;;15.58;55.01
40372;BME280;28564;53.346;-6.554;2022-10-31T02:06:38;99766.98;;;15.37;55.04
40372;BME280;28564;53.346;-6.554;2022-10-31T02:09:07;99765.11;;;15.62;54.86
40372;BME280;28564;53.346;-6.554;2022-10-31T02:11:36;99760.87;;;15.41;54.76
40372;BME280;28564;53.346;-6.554;2022-10-31T02:14:03;99765.18;;;15.41;54.81
40372;BME280;28564;53.346;-6.554;2022-10-31T02:16:30;99753.84;;;15.94;54.74
40372;BME280;28564;53.346;-6.554;2022-10-31T02:18:57;99756.49;;;15.69;54.79
40372;BME280;28564;53.346;-6.554;2022-10-31T02:21:30;99749.30;;;15.72;54.75
40372;BME280;28564;53.346;-6.554;2022-10-31T02:25:16;99747.55;;;15.84;54.76
40372;BME280;28564;53.346;-6.554;2022-10-31T02:28:23;99746.42;;;15.82;54.48
40372;BME280;28564;53.346;-6.554;2022-10-31T02:31:05;99743.10;;;16.02;54.54
40372;BME280;28564;53.346;-6.554;2022-10-31T02:33:42;99739.59;;;16.03;54.57
40372;BME280;28564;53.346;-6.554;2022-10-31T02:36:15;99733.81;;;16.04;54.67
40372;BME280;28564;53.346;-6.554;2022-10-31T02:38:51;99730.32;;;16.26;54.77
40372;BME280;28564;53.346;-6.554;2022-10-31T02:41:29;99728.66;;;15.95;54.92
40372;BME280;28564;53.346;-6.554;2022-10-31T02:44:07;99724.64;;;15.90;55.27
40372;BME280;28564;53.346;-6.554;2022-10-31T02:46:41;99722.10;;;15.63;55.22
40372;BME280;28564;53.346;-6.554;2022-10-31T02:49:16;99723.87;;;15.82;55.31
40372;BME280;28564;53.346;-6.554;2022-10-31T02:51:45;99719.22;;;15.63;55.35
40372;BME280;28564;53.346;-6.554;2022-10-31T02:54:22;99717.83;;;15.68;55.18
40372;BME280;28564;53.346;-6.554;2022-10-31T02:56:53;99720.46;;;15.71;54.93
40372;BME280;28564;53.346;-6.554;2022-10-31T02:59:22;99717.96;;;15.94;54.75
40372;BME280;28564;53.346;-6.554;2022-10-31T03:02:20;99716.83;;;16.17;54.64
40372;BME280;28564;53.346;-6.554;2022-10-31T03:05:03;99718.50;;;15.69;54.61
40372;BME280;28564;53.346;-6.554;2022-10-31T03:07:42;99725.65;;;15.70;54.47
40372;BME280;28564;53.346;-6.554;2022-10-31T03:10:19;99719.91;;;15.75;54.58
40372;BME280;28564;53.346;-6.554;2022-10-31T03:12:57;99726.55;;;16.10;54.55
40372;BME280;28564;53.346;-6.554;2022-10-31T03:15:30;99735.53;;;16.20;54.22
40372;BME280;28564;53.346;-6.554;2022-10-31T03:18:00;99729.20;;;16.01;54.07
40372;BME280;28564;53.346;-6.554;2022-10-31T03:20:34;99735.20;;;15.98;54.21
40372;BME280;28564;53.346;-6.554;2022-10-31T03:23:06;99733.46;;;15.92;54.55
40372;BME280;28564;53.346;-6.554;2022-10-31T03:25:35;99731.35;;;15.85;54.90
40372;BME280;28564;53.346;-6.554;2022-10-31T03:28:04;99728.70;;;16.00;55.01
40372;BME280;28564;53.346;-6.554;2022-10-31T03:30:33;99728.74;;;15.70;55.00
40372;BME280;28564;53.346;-6.554;2022-10-31T03:33:06;99732.08;;;15.66;55.26
40372;BME280;28564;53.346;-6.554;2022-10-31T03:35:36;99738.14;;;15.71;55.43
40372;BME280;28564;53.346;-6.554;2022-10-31T03:38:12;99739.87;;;15.86;55.17
40372;BME280;28564;53.346;-6.554;2022-10-31T03:40:42;99730.50;;;15.99;54.94
40372;BME280;28564;53.346;-6.554;2022-10-31T03:43:15;99730.08;;;16.31;54.75
40372;BME280;28564;53.346;-6.554;2022-10-31T03:45:45;99721.47;;;16.11;54.61
40372;BME280;28564;53.346;-6.554;2022-10-31T03:48:15;99726.94;;;16.04;54.65
40372;BME280;28564;53.346;-6.554;2022-10-31T03:50:50;99721.61;;;15.97;54.71
40372;BME280;28564;53.346;-6.554;2022-10-31T03:53:25;99719.32;;;15.91;54.67
40372;BME280;28564;53.346;-6.554;2022-10-31T03:55:59;99711.99;;;15.87;54.32
40372;BME280;28564;53.346;-6.554;2022-10-31T03:58:31;99712.63;;;16.02;54.32
40372;BME280;28564;53.346;-6.554;2022-10-31T04:01:02;99717.04;;;16.02;54.15
40372;BME280;28564;53.346;-6.554;2022-10-31T04:03:34;99715.82;;;16.05;54.13
40372;BME280;28564;53.346;-6.554;2022-10-31T04:06:06;99704.98;;;15.92;53.76
40372;BME280;28564;53.346;-6.554;2022-10-31T04:08:40;99703.38;;;15.93;53.48
40372;BME280;28564;53.346;-6.554;2022-10-31T04:11:09;99692.28;;;15.90;53.53
40372;BME280;28564;53.346;-6.554;2022-10-31T04:13:40;99690.82;;;15.85;53.64
40372;BME280;28564;53.346;-6.554;2022-10-31T04:16:10;99688.18;;;15.81;53.75
40372;BME280;28564;53.346;-6.554;2022-10-31T04:18:39;99690.20;;;15.78;53.73
40372;BME280;28564;53.346;-6.554;2022-10-31T04:21:07;99687.41;;;15.75;53.69
40372;BME280;28564;53.346;-6.554;2022-10-31T04:23:35;99686.78;;;15.71;53.81
40372;BME280;28564;53.346;-6.554;2022-10-31T04:26:03;99682.63;;;15.94;53.79
40372;BME280;28564;53.346;-6.554;2022-10-31T04:28:30;99687.78;;;15.73;53.69
40372;BME280;28564;53.346;-6.554;2022-10-31T04:30:57;99676.90;;;15.71;53.68
40372;BME280;28564;53.346;-6.554;2022-10-31T04:33:24;99674.78;;;15.89;53.65
40372;BME280;28564;53.346;-6.554;2022-10-31T04:35:52;99673.39;;;15.85;53.68
40372;BME280;28564;53.346;-6.554;2022-10-31T04:38:19;99674.94;;;15.82;53.67
40372;BME280;28564;53.346;-6.554;2022-10-31T04:40:46;99674.12;;;15.57;53.71
40372;BME280;28564;53.346;-6.554;2022-10-31T04:43:13;99675.98;;;15.78;53.73
40372;BME280;28564;53.346;-6.554;2022-10-31T04:45:40;99674.74;;;15.78;53.66
40372;BME280;28564;53.346;-6.554;2022-10-31T04:48:07;99670.11;;;16.05;53.80
40372;BME280;28564;53.346;-6.554;2022-10-31T04:50:34;99669.08;;;15.83;53.67
40372;BME280;28564;53.346;-6.554;2022-10-31T04:53:01;99662.30;;;15.87;53.60
40372;BME280;28564;53.346;-6.554;2022-10-31T04:55:28;99675.25;;;16.17;53.61
40372;BME280;28564;53.346;-6.554;2022-10-31T04:57:56;99672.26;;;15.74;53.61
40372;BME280;28564;53.346;-6.554;2022-10-31T05:00:24;99673.65;;;15.80;53.45
40372;BME280;28564;53.346;-6.554;2022-10-31T05:02:53;99666.15;;;15.84;53.38
40372;BME280;28564;53.346;-6.554;2022-10-31T05:05:22;99668.18;;;16.36;53.39
40372;BME280;28564;53.346;-6.554;2022-10-31T05:07:51;99659.88;;;16.13;53.57
40372;BME280;28564;53.346;-6.554;2022-10-31T05:10:22;99651.02;;;16.13;53.69
40372;BME280;28564;53.346;-6.554;2022-10-31T05:12:52;99650.15;;;16.16;53.75
40372;BME280;28564;53.346;-6.554;2022-10-31T05:15:21;99647.88;;;16.17;53.82
40372;BME280;28564;53.346;-6.554;2022-10-31T05:17:49;99653.31;;;15.97;54.03
40372;BME280;28564;53.346;-6.554;2022-10-31T05:20:19;99645.48;;;16.21;54.02
40372;BME280;28564;53.346;-6.554;2022-10-31T05:22:48;99646.11;;;16.01;53.99
40372;BME280;28564;53.346;-6.554;2022-10-31T05:25:17;99640.89;;;16.03;53.85
40372;BME280;28564;53.346;-6.554;2022-10-31T05:27:46;99639.65;;;16.27;53.78
40372;BME280;28564;53.346;-6.554;2022-10-31T05:30:16;99636.78;;;16.08;53.70
40372;BME280;28564;53.346;-6.554;2022-10-31T05:32:46;99623.53;;;16.10;53.62
40372;BME280;28564;53.346;-6.554;2022-10-31T05:35:16;99625.05;;;16.35;53.63
40372;BME280;28564;53.346;-6.554;2022-10-31T05:37:43;99620.56;;;16.41;53.47
40372;BME280;28564;53.346;-6.554;2022-10-31T05:40:13;99620.42;;;16.20;53.44
40372;BME280;28564;53.346;-6.554;2022-10-31T05:42:41;99625.08;;;16.21;53.35
40372;BME280;28564;53.346;-6.554;2022-10-31T05:45:09;99624.42;;;16.43;53.32
40372;BME280;28564;53.346;-6.554;2022-10-31T05:47:37;99624.72;;;16.42;53.31
40372;BME280;28564;53.346;-6.554;2022-10-31T05:50:05;99627.35;;;16.18;53.33
40372;BME280;28564;53.346;-6.554;2022-10-31T05:52:32;99626.72;;;16.18;53.33
40372;BME280;28564;53.346;-6.554;2022-10-31T05:55:00;99624.73;;;16.25;53.25
40372;BME280;28564;53.346;-6.554;2022-10-31T05:57:28;99626.74;;;16.02;53.41
40372;BME280;28564;53.346;-6.554;2022-10-31T05:59:55;99629.47;;;16.45;53.57
40372;BME280;28564;53.346;-6.554;2022-10-31T06:02:23;99619.77;;;16.22;53.57
40372;BME280;28564;53.346;-6.554;2022-10-31T06:04:50;99628.64;;;16.42;53.71
40372;BME280;28564;53.346;-6.554;2022-10-31T06:07:18;99624.27;;;16.26;53.76
40372;BME280;28564;53.346;-6.554;2022-10-31T06:09:45;99620.46;;;16.11;53.71
40372;BME280;28564;53.346;-6.554;2022-10-31T06:12:12;99613.61;;;16.61;53.65
40372;BME280;28564;53.346;-6.554;2022-10-31T06:14:39;99609.33;;;16.43;53.59
40372;BME280;28564;53.346;-6.554;2022-10-31T06:17:06;99611.27;;;16.43;53.61
40372;BME280;28564;53.346;-6.554;2022-10-31T06:19:33;99605.68;;;16.43;53.50
40372;BME280;28564;53.346;-6.554;2022-10-31T06:22:00;99609.52;;;16.40;53.46
40372;BME280;28564;53.346;-6.554;2022-10-31T06:24:27;99609.83;;;16.38;53.45
40372;BME280;28564;53.346;-6.554;2022-10-31T06:26:54;99612.73;;;16.39;53.44
40372;BME280;28564;53.346;-6.554;2022-10-31T06:29:21;99606.57;;;16.37;53.48
40372;BME280;28564;53.346;-6.554;2022-10-31T06:31:51;99608.83;;;16.38;53.53
40372;BME280;28564;53.346;-6.554;2022-10-31T06:34:18;99612.15;;;16.63;53.51
40372;BME280;28564;53.346;-6.554;2022-10-31T06:36:46;99612.40;;;16.51;53.37
40372;BME280;28564;53.346;-6.554;2022-10-31T06:39:13;99609.35;;;16.59;53.23
40372;BME280;28564;53.346;-6.554;2022-10-31T06:41:40;99608.75;;;16.64;53.11
40372;BME280;28564;53.346;-6.554;2022-10-31T06:44:08;99611.37;;;16.44;53.08
40372;BME280;28564;53.346;-6.554;2022-10-31T06:46:35;99609.56;;;16.47;53.14
40372;BME280;28564;53.346;-6.554;2022-10-31T06:49:02;99606.96;;;16.72;53.21
40372;BME280;28564;53.346;-6.554;2022-10-31T06:51:29;99616.39;;;16.77;53.15
40372;BME280;28564;53.346;-6.554;2022-10-31T06:53:56;99616.64;;;16.54;53.11
40372;BME280;28564;53.346;-6.554;2022-10-31T06:56:23;99613.30;;;16.74;53.07
40372;BME280;28564;53.346;-6.554;2022-10-31T06:58:51;99618.35;;;16.74;53.06
40372;BME280;28564;53.346;-6.554;2022-10-31T07:01:18;99619.50;;;16.72;53.21
40372;BME280;28564;53.346;-6.554;2022-10-31T07:03:45;99625.81;;;16.53;53.27
40372;BME280;28564;53.346;-6.554;2022-10-31T07:06:12;99620.53;;;16.75;53.38
40372;BME280;28564;53.346;-6.554;2022-10-31T07:08:39;99618.04;;;16.55;53.38
40372;BME280;28564;53.346;-6.554;2022-10-31T07:11:06;99623.99;;;16.31;53.44
40372;BME280;28564;53.346;-6.554;2022-10-31T07:13:33;99625.78;;;16.61;53.48
40372;BME280;28564;53.346;-6.554;2022-10-31T07:16:03;99636.67;;;16.88;53.45
40372;BME280;28564;53.346;-6.554;2022-10-31T07:18:30;99642.74;;;16.72;53.40
40372;BME280;28564;53.346;-6.554;2022-10-31T07:20:57;99634.77;;;16.75;53.58
40372;BME280;28564;53.346;-6.554;2022-10-31T07:23:24;99633.27;;;16.93;53.82
40372;BME280;28564;53.346;-6.554;2022-10-31T07:25:55;99634.04;;;16.83;54.21
40372;BME280;28564;53.346;-6.554;2022-10-31T07:28:22;99636.99;;;16.51;54.57
40372;BME280;28564;53.346;-6.554;2022-10-31T07:30:51;99639.04;;;16.49;54.67
40372;BME280;28564;53.346;-6.554;2022-10-31T07:33:18;99635.93;;;16.69;54.68
40372;BME280;28564;53.346;-6.554;2022-10-31T07:35:45;99637.33;;;16.69;54.77
40372;BME280;28564;53.346;-6.554;2022-10-31T07:38:13;99647.91;;;16.71;54.91
40372;BME280;28564;53.346;-6.554;2022-10-31T07:40:42;99645.79;;;16.51;55.05
40372;BME280;28564;53.346;-6.554;2022-10-31T07:43:10;99640.43;;;16.75;55.16
40372;BME280;28564;53.346;-6.554;2022-10-31T07:45:38;99641.05;;;16.51;55.32
40372;BME280;28564;53.346;-6.554;2022-10-31T07:48:05;99643.54;;;16.67;55.44
40372;BME280;28564;53.346;-6.554;2022-10-31T07:50:32;99644.97;;;16.62;55.47
40372;BME280;28564;53.346;-6.554;2022-10-31T07:53:01;99644.86;;;16.62;55.33
40372;BME280;28564;53.346;-6.554;2022-10-31T07:55:29;99647.36;;;16.84;55.16
40372;BME280;28564;53.346;-6.554;2022-10-31T07:57:58;99646.19;;;16.65;54.95
40372;BME280;28564;53.346;-6.554;2022-10-31T08:00:26;99643.10;;;16.70;54.97
40372;BME280;28564;53.346;-6.554;2022-10-31T08:02:58;99652.53;;;16.77;54.55
40372;BME280;28564;53.346;-6.554;2022-10-31T08:05:26;99649.58;;;16.85;54.42
40372;BME280;28564;53.346;-6.554;2022-10-31T08:07:53;99653.51;;;16.95;54.18
40372;BME280;28564;53.346;-6.554;2022-10-31T08:10:20;99655.42;;;16.56;54.00
40372;BME280;28564;53.346;-6.554;2022-10-31T08:12:55;99648.79;;;16.66;53.60
40372;BME280;28564;53.346;-6.554;2022-10-31T08:15:23;99649.75;;;16.74;53.35
40372;BME280;28564;53.346;-6.554;2022-10-31T08:17:51;99639.66;;;17.30;53.08
40372;BME280;28564;53.346;-6.554;2022-10-31T08:20:18;99649.65;;;17.16;53.01
40372;BME280;28564;53.346;-6.554;2022-10-31T08:22:53;99654.91;;;16.98;52.71
40372;BME280;28564;53.346;-6.554;2022-10-31T08:25:20;99655.44;;;17.04;52.64
40372;BME280;28564;53.346;-6.554;2022-10-31T08:27:49;99663.20;;;17.13;52.53
40372;BME280;28564;53.346;-6.554;2022-10-31T08:30:16;99663.63;;;17.20;52.16
40372;BME280;28564;53.346;-6.554;2022-10-31T08:32:44;99664.65;;;17.23;52.06
40372;BME280;28564;53.346;-6.554;2022-10-31T08:35:11;99667.52;;;17.52;51.96
40372;BME280;28564;53.346;-6.554;2022-10-31T08:37:38;99658.91;;;17.25;51.74
40372;BME280;28564;53.346;-6.554;2022-10-31T08:40:06;99663.93;;;17.26;51.66
40372;BME280;28564;53.346;-6.554;2022-10-31T08:42:33;99667.52;;;17.26;51.66
40372;BME280;28564;53.346;-6.554;2022-10-31T08:45:00;99660.21;;;17.53;51.44
40372;BME280;28564;53.346;-6.554;2022-10-31T08:47:27;99657.53;;;17.52;51.51
40372;BME280;28564;53.346;-6.554;2022-10-31T08:49:54;99661.47;;;17.27;51.31
40372;BME280;28564;53.346;-6.554;2022-10-31T08:52:23;99658.70;;;17.31;51.03
40372;BME280;28564;53.346;-6.554;2022-10-31T08:54:51;99659.60;;;17.35;51.07
40372;BME280;28564;53.346;-6.554;2022-10-31T08:57:18;99665.45;;;17.39;50.69
40372;BME280;28564;53.346;-6.554;2022-10-31T08:59:45;99665.61;;;17.46;50.54
40372;BME280;28564;53.346;-6.554;2022-10-31T09:02:12;99667.60;;;17.55;50.29
40372;BME280;28564;53.346;-6.554;2022-10-31T09:04:39;99675.59;;;17.64;49.97
40372;BME280;28564;53.346;-6.554;2022-10-31T09:07:07;99673.93;;;17.71;49.80
40372;BME280;28564;53.346;-6.554;2022-10-31T09:09:34;99675.58;;;17.81;49.71
40372;BME280;28564;53.346;-6.554;2022-10-31T09:12:01;99681.22;;;17.89;49.54
40372;BME280;28564;53.346;-6.554;2022-10-31T09:14:28;99681.63;;;18.01;49.44
40372;BME280;28564;53.346;-6.554;2022-10-31T09:16:55;99679.64;;;17.89;49.26
40372;BME280;28564;53.346;-6.554;2022-10-31T09:19:22;99684.22;;;17.95;49.14
40372;BME280;28564;53.346;-6.554;2022-10-31T09:21:52;99681.32;;;18.17;49.23
40372;BME280;28564;53.346;-6.554;2022-10-31T09:24:20;99689.72;;;18.13;49.59
40372;BME280;28564;53.346;-6.554;2022-10-31T09:26:47;99681.88;;;17.82;50.17
40372;BME280;28564;53.346;-6.554;2022-10-31T09:29:14;99681.56;;;17.67;50.91
40372;BME280;28564;53.346;-6.554;2022-10-31T09:31:41;99677.10;;;17.61;51.34
40372;BME280;28564;53.346;-6.554;2022-10-31T09:34:08;99676.05;;;17.82;51.59
40372;BME280;28564;53.346;-6.554;2022-10-31T09:36:35;99669.54;;;17.83;51.86
40372;BME280;28564;53.346;-6.554;2022-10-31T09:39:03;99669.95;;;17.59;51.63
40372;BME280;28564;53.346;-6.554;2022-10-31T09:41:44;99669.78;;;17.85;51.65
40372;BME280;28564;53.346;-6.554;2022-10-31T09:44:22;99665.21;;;17.89;51.62
40372;BME280;28564;53.346;-6.554;2022-10-31T09:47:04;99655.10;;;17.96;51.33
40372;BME280;28564;53.346;-6.554;2022-10-31T09:49:42;99659.78;;;17.81;50.89
40372;BME280;28564;53.346;-6.554;2022-10-31T09:52:22;99661.41;;;17.92;50.83
40372;BME280;28564;53.346;-6.554;2022-10-31T09:54:53;99659.73;;;18.25;50.18
40372;BME280;28564;53.346;-6.554;2022-10-31T09:57:27;99661.19;;;17.82;49.50
40372;BME280;28564;53.346;-6.554;2022-10-31T09:59:56;99669.21;;;18.06;49.32
40372;BME280;28564;53.346;-6.554;2022-10-31T10:03:54;99671.18;;;18.24;48.34
40372;BME280;28564;53.346;-6.554;2022-10-31T10:06:27;99675.68;;;18.26;48.53
40372;BME280;28564;53.346;-6.554;2022-10-31T10:08:56;99676.45;;;18.05;48.66
40372;BME280;28564;53.346;-6.554;2022-10-31T10:11:36;99682.72;;;18.07;48.63
40372;BME280;28564;53.346;-6.554;2022-10-31T10:14:17;99674.78;;;18.52;49.19
40372;BME280;28564;53.346;-6.554;2022-10-31T10:16:59;99669.77;;;18.22;49.61
40372;BME280;28564;53.346;-6.554;2022-10-31T10:19:50;99668.61;;;17.97;49.94
40372;BME280;28564;53.346;-6.554;2022-10-31T10:22:27;99670.10;;;18.10;50.29
40372;BME280;28564;53.346;-6.554;2022-10-31T10:25:14;99670.40;;;18.20;50.75
40372;BME280;28564;53.346;-6.554;2022-10-31T10:28:04;99668.80;;;18.26;51.18
40372;BME280;28564;53.346;-6.554;2022-10-31T10:30:40;99670.69;;;18.23;51.59
40372;BME280;28564;53.346;-6.554;2022-10-31T10:33:11;99670.05;;;18.06;51.60
40372;BME280;28564;53.346;-6.554;2022-10-31T10:35:42;99660.31;;;18.34;51.38
40372;BME280;28564;53.346;-6.554;2022-10-31T10:38:17;99666.35;;;18.21;51.46
40372;BME280;28564;53.346;-6.554;2022-10-31T10:40:47;99669.78;;;18.57;51.25
40372;BME280;28564;53.346;-6.554;2022-10-31T10:43:21;99661.71;;;18.16;50.97
40372;BME280;28564;53.346;-6.554;2022-10-31T10:45:52;99667.92;;;18.51;50.68
40372;BME280;28564;53.346;-6.554;2022-10-31T10:48:30;99665.63;;;18.42;50.17
40372;BME280;28564;53.346;-6.554;2022-10-31T10:51:00;99661.98;;;18.63;49.98
40372;BME280;28564;53.346;-6.554;2022-10-31T10:53:38;99658.95;;;18.62;49.20
40372;BME280;28564;53.346;-6.554;2022-10-31T10:56:16;99660.91;;;19.13;48.05
40372;BME280;28564;53.346;-6.554;2022-10-31T10:58:45;99667.17;;;19.19;47.59
40372;BME280;28564;53.346;-6.554;2022-10-31T11:01:13;99672.13;;;18.70;47.51
40372;BME280;28564;53.346;-6.554;2022-10-31T11:03:41;99685.85;;;18.90;47.25
40372;BME280;28564;53.346;-6.554;2022-10-31T11:06:18;99696.10;;;18.48;47.86
40372;BME280;28564;53.346;-6.554;2022-10-31T11:08:52;99700.62;;;17.87;50.61
40372;BME280;28564;53.346;-6.554;2022-10-31T11:11:25;99696.27;;;17.28;53.34
40372;BME280;28564;53.346;-6.554;2022-10-31T11:13:59;99693.88;;;17.17;54.55
40372;BME280;28564;53.346;-6.554;2022-10-31T11:16:30;99700.98;;;16.58;55.99
40372;BME280;28564;53.346;-6.554;2022-10-31T11:19:09;99697.85;;;16.45;56.29
40372;BME280;28564;53.346;-6.554;2022-10-31T11:21:40;99688.31;;;16.58;56.67
40372;BME280;28564;53.346;-6.554;2022-10-31T11:24:15;99688.67;;;16.34;56.80
40372;BME280;28564;53.346;-6.554;2022-10-31T11:26:44;99684.18;;;16.62;56.91
40372;BME280;28564;53.346;-6.554;2022-10-31T11:29:16;99683.66;;;16.43;56.69
40372;BME280;28564;53.346;-6.554;2022-10-31T11:31:45;99677.06;;;16.42;56.39
40372;BME280;28564;53.346;-6.554;2022-10-31T11:34:17;99678.17;;;16.44;55.06
40372;BME280;28564;53.346;-6.554;2022-10-31T11:36:45;99671.35;;;16.31;54.83
40372;BME280;28564;53.346;-6.554;2022-10-31T11:39:17;99674.19;;;16.10;55.28
40372;BME280;28564;53.346;-6.554;2022-10-31T11:41:46;99684.25;;;16.36;55.70
40372;BME280;28564;53.346;-6.554;2022-10-31T11:44:17;99678.67;;;16.65;56.12
40372;BME280;28564;53.346;-6.554;2022-10-31T11:47:02;99673.16;;;16.76;55.19
40372;BME280;28564;53.346;-6.554;2022-10-31T11:49:33;99669.11;;;16.83;55.01
40372;BME280;28564;53.346;-6.554;2022-10-31T11:52:06;99669.81;;;16.89;54.66
40372;BME280;28564;53.346;-6.554;2022-10-31T11:54:40;99665.37;;;16.82;55.10
40372;BME280;28564;53.346;-6.554;2022-10-31T11:57:22;99647.90;;;16.64;54.92
40372;BME280;28564;53.346;-6.554;2022-10-31T11:59:52;99643.73;;;16.54;55.55
40372;BME280;28564;53.346;-6.554;2022-10-31T12:02:21;99633.04;;;16.75;55.87
40372;BME280;28564;53.346;-6.554;2022-10-31T12:04:54;99630.17;;;16.73;55.59
40372;BME280;28564;53.346;-6.554;2022-10-31T12:07:23;99613.00;;;16.70;55.67
40372;BME280;28564;53.346;-6.554;2022-10-31T12:09:51;99601.40;;;16.47;55.67
40372;BME280;28564;53.346;-6.554;2022-10-31T12:12:47;99604.73;;;16.46;55.45
40372;BME280;28564;53.346;-6.554;2022-10-31T12:15:27;99613.72;;;16.72;55.15
40372;BME280;28564;53.346;-6.554;2022-10-31T12:18:06;99610.21;;;17.03;55.80
40372;BME280;28564;53.346;-6.554;2022-10-31T12:20:47;99607.86;;;17.12;56.16
40372;BME280;28564;53.346;-6.554;2022-10-31T12:23:28;99606.20;;;17.12;55.57
40372;BME280;28564;53.346;-6.554;2022-10-31T12:26:08;99598.54;;;17.42;55.36
40372;BME280;28564;53.346;-6.554;2022-10-31T12:28:49;99596.40;;;17.74;54.54
40372;BME280;28564;53.346;-6.554;2022-10-31T12:31:31;99595.03;;;17.58;53.70
40372;BME280;28564;53.346;-6.554;2022-10-31T12:34:13;99588.77;;;17.76;53.53
40372;BME280;28564;53.346;-6.554;2022-10-31T12:36:57;99578.91;;;17.58;54.39
40372;BME280;28564;53.346;-6.554;2022-10-31T12:39:35;99574.22;;;17.82;53.73
40372;BME280;28564;53.346;-6.554;2022-10-31T12:42:13;99571.41;;;17.60;54.20
40372;BME280;28564;53.346;-6.554;2022-10-31T12:45:00;99568.43;;;17.99;54.49
40372;BME280;28564;53.346;-6.554;2022-10-31T12:47:50;99568.88;;;18.19;54.39
40372;BME280;28564;53.346;-6.554;2022-10-31T12:50:31;99557.69;;;17.71;53.97
40372;BME280;28564;53.346;-6.554;2022-10-31T12:53:13;99551.84;;;17.89;54.06
40372;BME280;28564;53.346;-6.554;2022-10-31T12:55:55;99552.69;;;17.74;54.25
40372;BME280;28564;53.346;-6.554;2022-10-31T12:58:29;99553.11;;;17.67;53.98
40372;BME280;28564;53.346;-6.554;2022-10-31T13:01:07;99561.38;;;17.77;54.47
40372;BME280;28564;53.346;-6.554;2022-10-31T13:03:42;99548.47;;;17.60;54.26
40372;BME280;28564;53.346;-6.554;2022-10-31T13:06:18;99554.71;;;17.46;54.20
40372;BME280;28564;53.346;-6.554;2022-10-31T13:08:49;99550.99;;;17.35;54.11
40372;BME280;28564;53.346;-6.554;2022-10-31T13:11:21;99546.49;;;17.69;54.23